Time;durP1;ratioP1;P1;durP2;ratioP2;P2;SDS_P1;SDS_P2;PMS_P1;PMS_P2;Temp;Humidity;BMP_temperature;BMP_pressure;BME280_temperature;BME280_humidity;BME280_pressure;Samples;Min_cycle;Max_cycle;Signal;HPM_P1;HPM_P2
2023/02/02 00:00:40;;;;;;;;;;;;;;;22.13;22.57;97642.38;5018237;28;1971;-77
2023/02/02 00:03:07;;;;;;;;;;;;;;;22.65;21.65;97655.91;5018508;28;984;-76
2023/02/02 00:05:33;;;;;;;;;;;;;;;21.99;22.40;97649.28;5017976;28;857;-76
2023/02/02 00:07:58;;;;;;;;;;;;;;;22.60;21.71;97659.34;5018285;28;987;-76
2023/02/02 00:10:23;;;;;;;;;;;;;;;22.13;22.32;97642.38;5017667;28;934;-77
2023/02/02 00:12:49;;;;;;;;;;;;;;;22.32;22.05;97639.25;5018349;28;967;-76
2023/02/02 00:15:14;;;;;;;;;;;;;;;22.35;22.23;97644.00;5018103;28;1102;-75
2023/02/02 00:17:40;;;;;;;;;;;;;;;22.44;22.09;97639.69;5018292;28;936;-77
2023/02/02 00:20:05;;;;;;;;;;;;;;;22.39;21.86;97626.09;5017826;28;1978;-76
2023/02/02 00:22:31;;;;;;;;;;;;;;;22.29;22.16;97619.53;5018347;28;925;-77
2023/02/02 00:24:56;;;;;;;;;;;;;;;21.84;22.54;97621.44;5017971;28;988;-75
2023/02/02 00:27:22;;;;;;;;;;;;;;;22.06;22.40;97620.69;5018058;28;968;-76
2023/02/02 00:29:48;;;;;;;;;;;;;;;21.94;22.69;97618.69;5018030;28;1005;-76
2023/02/02 00:32:13;;;;;;;;;;;;;;;21.90;22.50;97612.34;5000421;28;902;-76
2023/02/02 00:34:39;;;;;;;;;;;;;;;21.73;22.71;97632.34;5000493;28;1573;-75
2023/02/02 00:37:04;;;;;;;;;;;;;;;21.70;22.86;97638.88;5017841;28;925;-76
2023/02/02 00:39:30;;;;;;;;;;;;;;;21.70;22.89;97638.88;5000019;28;1251;-76
2023/02/02 00:41:55;;;;;;;;;;;;;;;21.71;23.05;97646.16;5017519;28;1906;-75
2023/02/02 00:47:05;;;;;;;;;;;;;;;22.24;22.17;97626.59;5000216;28;1509;-76
2023/02/02 00:49:30;;;;;;;;;;;;;;;22.22;22.15;97612.06;5017648;28;1190;-76
2023/02/02 00:51:56;;;;;;;;;;;;;;;22.19;21.99;97617.88;4999975;28;1126;-76
2023/02/02 00:54:21;;;;;;;;;;;;;;;21.62;22.99;97614.91;5017417;28;994;-76
2023/02/02 00:56:46;;;;;;;;;;;;;;;21.53;22.82;97606.28;5000080;28;1021;-76
2023/02/02 00:59:12;;;;;;;;;;;;;;;21.44;22.92;97606.19;5017188;28;967;-75
2023/02/02 01:01:37;;;;;;;;;;;;;;;21.97;22.25;97606.47;5017239;28;1971;-75
2023/02/02 01:04:03;;;;;;;;;;;;;;;21.98;22.41;97602.38;5017420;28;1056;-76
2023/02/02 01:06:28;;;;;;;;;;;;;;;22.15;22.24;97598.16;4999617;28;1237;-76
2023/02/02 01:08:54;;;;;;;;;;;;;;;22.23;21.98;97585.34;5017283;28;982;-76
2023/02/02 01:11:19;;;;;;;;;;;;;;;22.07;22.09;97579.78;5017054;28;972;-75
2023/02/02 01:13:45;;;;;;;;;;;;;;;21.98;22.27;97579.72;4999790;28;1292;-76
2023/02/02 01:16:11;;;;;;;;;;;;;;;21.61;22.68;97579.34;4999444;28;1378;-76
2023/02/02 01:18:37;;;;;;;;;;;;;;;21.51;22.92;97581.28;5017278;28;933;-75
2023/02/02 01:21:06;;;;;;;;;;;;;;;21.82;22.68;97572.97;4999214;28;1989;-76
2023/02/02 01:23:32;;;;;;;;;;;;;;;21.91;22.16;97585.63;5016960;28;938;-76
2023/02/02 01:25:58;;;;;;;;;;;;;;;22.08;22.15;97585.00;4999232;28;975;-76
2023/02/02 01:28:23;;;;;;;;;;;;;;;21.96;22.58;97587.88;5016752;28;1102;-76
2023/02/02 01:30:49;;;;;;;;;;;;;;;21.94;22.11;97584.72;5016732;28;967;-75
2023/02/02 01:33:15;;;;;;;;;;;;;;;22.19;22.16;97589.53;5016870;28;931;-76
2023/02/02 01:35:47;;;;;;;;;;;;;;;21.91;22.21;97579.94;4999457;28;975;-76
2023/02/02 01:38:12;;;;;;;;;;;;;;;21.66;22.78;97575.94;5016971;28;1009;-76
2023/02/02 01:40:56;;;;;;;;;;;;;;;21.40;22.95;97578.00;5016699;28;1980;-75
2023/02/02 01:43:26;;;;;;;;;;;;;;;21.82;22.35;97575.78;4999204;28;895;-75
2023/02/02 01:45:51;;;;;;;;;;;;;;;22.05;22.40;97577.41;4998899;28;960;-76
2023/02/02 01:48:17;;;;;;;;;;;;;;;22.16;21.93;97571.41;4999250;28;945;-75
2023/02/02 01:50:43;;;;;;;;;;;;;;;22.04;22.03;97566.56;4999139;28;875;-75
2023/02/02 01:53:09;;;;;;;;;;;;;;;22.23;21.90;97582.50;4999126;28;931;-76
2023/02/02 01:55:35;;;;;;;;;;;;;;;22.28;21.72;97576.25;4998112;28;984;-76
2023/02/02 01:58:05;;;;;;;;;;;;;;;22.24;21.88;97571.94;4998817;28;1128;-75
2023/02/02 02:00:30;;;;;;;;;;;;;;;22.01;22.03;97575.94;4998606;28;1902;-76
2023/02/02 02:02:57;;;;;;;;;;;;;;;21.77;22.54;97576.38;5016466;28;932;-76
2023/02/02 02:05:27;;;;;;;;;;;;;;;21.56;22.70;97574.25;4999082;28;1238;-76
2023/02/02 02:07:54;;;;;;;;;;;;;;;22.12;22.08;97576.41;4998743;28;1126;-75
2023/02/02 02:10:21;;;;;;;;;;;;;;;22.37;21.92;97572.66;4999230;28;1179;-75
2023/02/02 02:12:46;;;;;;;;;;;;;;;22.09;22.04;97568.81;5003226;28;1132;-76
2023/02/02 02:17:58;;;;;;;;;;;;;;;21.78;22.22;97565.84;4982307;28;1251;-76
2023/02/02 02:26:53;;;;;;;;;;;;;;;22.07;22.08;97559.94;4998120;28;1228;-75
2023/02/02 02:29:37;;;;;;;;;;;;;;;21.93;22.60;97577.47;4981902;28;1227;-76
2023/02/02 02:32:35;;;;;;;;;;;;;;;22.62;21.69;97578.22;4981916;28;1199;-76
2023/02/02 02:35:00;;;;;;;;;;;;;;;22.28;21.74;97581.13;4924491;29;1121;-76
2023/02/02 02:37:44;;;;;;;;;;;;;;;22.07;21.94;97576.94;4940135;29;1088;-75
2023/02/02 02:40:13;;;;;;;;;;;;;;;22.30;21.76;97573.72;4939603;29;1975;-75
2023/02/02 02:42:41;;;;;;;;;;;;;;;21.83;22.68;97568.88;4940027;29;1151;-75
2023/02/02 02:45:07;;;;;;;;;;;;;;;22.52;21.60;97573.72;4940471;29;1593;-76
2023/02/02 02:47:32;;;;;;;;;;;;;;;22.21;22.18;97587.81;4939912;29;1003;-75
2023/02/02 02:49:58;;;;;;;;;;;;;;;22.59;21.71;97578.38;4923509;29;1440;-76
2023/02/02 02:52:23;;;;;;;;;;;;;;;22.64;21.45;97577.78;4939706;29;1034;-75
2023/02/02 02:54:50;;;;;;;;;;;;;;;22.52;21.75;97578.59;4923659;29;1166;-76
2023/02/02 02:57:35;;;;;;;;;;;;;;;21.97;22.44;97572.47;4920288;29;1049;-75
2023/02/02 03:00:33;;;;;;;;;;;;;;;22.08;22.19;97572.88;4920501;29;1211;-75
2023/02/02 03:03:01;;;;;;;;;;;;;;;22.70;21.49;97573.06;4864084;29;997;-76
2023/02/02 03:05:33;;;;;;;;;;;;;;;22.72;21.40;97559.22;4864057;29;1030;-75
2023/02/02 03:07:58;;;;;;;;;;;;;;;22.45;21.79;97567.53;4864283;29;1141;-75
2023/02/02 03:10:24;;;;;;;;;;;;;;;22.39;21.93;97569.41;4864326;29;1622;-76
2023/02/02 03:12:49;;;;;;;;;;;;;;;22.27;21.83;97556.84;4901288;29;1040;-75
2023/02/02 03:15:15;;;;;;;;;;;;;;;22.80;21.14;97566.22;4885767;29;973;-76
2023/02/02 03:17:41;;;;;;;;;;;;;;;22.54;21.57;97559.13;4885835;29;1053;-76
2023/02/02 03:20:06;;;;;;;;;;;;;;;22.25;21.84;97553.69;4885743;29;1906;-76
2023/02/02 03:22:32;;;;;;;;;;;;;;;22.48;21.49;97558.09;4899910;29;1599;-75
2023/02/02 03:24:58;;;;;;;;;;;;;;;22.34;21.59;97551.72;4910803;29;1138;-76
2023/02/02 03:27:24;;;;;;;;;;;;;;;22.51;21.48;97548.69;4922629;29;986;-75
2023/02/02 03:29:49;;;;;;;;;;;;;;;22.57;21.22;97552.50;4939200;29;913;-76
2023/02/02 03:32:14;;;;;;;;;;;;;;;22.57;21.41;97563.84;4938909;29;984;-76
2023/02/02 03:34:40;;;;;;;;;;;;;;;22.71;21.25;97563.31;4939277;29;968;-75
2023/02/02 03:37:05;;;;;;;;;;;;;;;22.49;21.49;97562.53;4938681;29;911;-75
2023/02/02 03:39:31;;;;;;;;;;;;;;;22.80;21.10;97565.41;5010817;28;1093;-76
2023/02/02 03:41:56;;;;;;;;;;;;;;;22.11;22.00;97563.47;5017511;28;1971;-76
2023/02/02 03:44:22;;;;;;;;;;;;;;;22.46;21.64;97563.44;5001492;28;1354;-76
2023/02/02 03:46:47;;;;;;;;;;;;;;;22.81;21.02;97559.28;5001172;28;963;-76
2023/02/02 03:49:13;;;;;;;;;;;;;;;22.41;21.43;97561.22;5018161;28;872;-75
2023/02/02 03:51:38;;;;;;;;;;;;;;;22.57;21.40;97555.34;5018807;28;856;-76
2023/02/02 03:54:03;;;;;;;;;;;;;;;22.96;21.03;97547.41;5000888;28;964;-76
2023/02/02 03:56:29;;;;;;;;;;;;;;;22.16;21.89;97551.56;5018343;28;911;-76
2023/02/02 03:58:54;;;;;;;;;;;;;;;22.63;21.32;97561.97;5018326;28;1026;-75
2023/02/02 04:01:24;;;;;;;;;;;;;;;22.16;21.96;97550.78;5018477;28;1902;-75
2023/02/02 04:03:50;;;;;;;;;;;;;;;21.98;22.15;97555.00;4984596;28;981;-76
2023/02/02 04:06:16;;;;;;;;;;;;;;;22.65;21.36;97558.72;5018224;28;963;-76
2023/02/02 04:08:41;;;;;;;;;;;;;;;22.46;21.45;97554.94;5018025;28;997;-75
2023/02/02 04:11:09;;;;;;;;;;;;;;;22.51;21.49;97552.31;5017977;28;904;-76
2023/02/02 04:13:35;;;;;;;;;;;;;;;22.61;21.71;97558.84;5017838;28;885;-75
2023/02/02 04:16:00;;;;;;;;;;;;;;;22.52;21.89;97555.94;5017884;28;942;-76
2023/02/02 04:18:26;;;;;;;;;;;;;;;22.42;22.11;97562.78;5001023;28;925;-76
2023/02/02 04:20:55;;;;;;;;;;;;;;;22.52;21.52;97559.56;5017960;28;1990;-76
2023/02/02 04:23:20;;;;;;;;;;;;;;;22.61;21.45;97558.84;5017905;28;896;-76
2023/02/02 04:25:49;;;;;;;;;;;;;;;23.03;20.83;97569.81;5017628;28;958;-76
2023/02/02 04:28:14;;;;;;;;;;;;;;;22.53;21.77;97563.19;5000158;28;964;-76
2023/02/02 04:30:40;;;;;;;;;;;;;;;21.99;22.27;97553.75;5017487;28;1006;-76
2023/02/02 04:33:06;;;;;;;;;;;;;;;22.06;22.38;97556.31;5017275;28;1033;-75
2023/02/02 04:35:31;;;;;;;;;;;;;;;21.63;22.79;97565.53;5000205;28;947;-76
2023/02/02 04:37:56;;;;;;;;;;;;;;;22.06;22.25;97558.38;4999367;28;968;-76
2023/02/02 04:40:22;;;;;;;;;;;;;;;21.96;22.56;97559.53;5017081;28;1980;-76
2023/02/02 04:42:47;;;;;;;;;;;;;;;22.04;22.49;97561.66;5016900;28;1563;-75
2023/02/02 04:45:13;;;;;;;;;;;;;;;22.24;22.09;97575.56;5016833;28;1730;-75
2023/02/02 04:47:39;;;;;;;;;;;;;;;22.32;21.96;97570.44;5017632;28;933;-75
2023/02/02 04:50:05;;;;;;;;;;;;;;;21.92;22.30;97571.00;5000165;28;1029;-76
2023/02/02 04:52:30;;;;;;;;;;;;;;;22.25;22.08;97576.34;5017906;28;999;-76
2023/02/02 04:54:55;;;;;;;;;;;;;;;21.84;22.27;97570.44;4998969;28;1071;-75
2023/02/02 04:57:21;;;;;;;;;;;;;;;21.84;22.74;97567.63;5017288;28;930;-76
2023/02/02 04:59:46;;;;;;;;;;;;;;;22.31;21.98;97569.63;5016712;28;1990;-76
2023/02/02 05:02:12;;;;;;;;;;;;;;;22.20;21.83;97568.44;5017659;28;1971;-76
2023/02/02 05:04:37;;;;;;;;;;;;;;;22.10;22.09;97564.72;4982609;28;1370;-76
2023/02/02 05:07:03;;;;;;;;;;;;;;;22.16;22.12;97565.72;5016347;28;1000;-76
2023/02/02 05:09:28;;;;;;;;;;;;;;;22.24;21.65;97563.44;5017037;28;1084;-76
2023/02/02 05:11:54;;;;;;;;;;;;;;;22.48;21.60;97560.94;5017000;28;941;-76
2023/02/02 05:14:19;;;;;;;;;;;;;;;22.79;21.19;97561.75;5013524;28;1453;-76
2023/02/02 05:16:44;;;;;;;;;;;;;;;22.50;21.76;97561.28;5016297;28;1686;-76
2023/02/02 05:19:10;;;;;;;;;;;;;;;22.35;21.77;97564.63;5017423;28;902;-75
2023/02/02 05:21:35;;;;;;;;;;;;;;;22.19;21.83;97572.53;5017132;28;1983;-76
2023/02/02 05:24:02;;;;;;;;;;;;;;;21.87;22.29;97573.63;5016869;28;913;-76
2023/02/02 05:26:28;;;;;;;;;;;;;;;22.09;21.80;97580.13;5016949;28;905;-77
2023/02/02 05:28:53;;;;;;;;;;;;;;;22.66;21.36;97574.47;5016872;28;1067;-76
2023/02/02 05:31:18;;;;;;;;;;;;;;;22.76;21.03;97581.78;5016868;28;878;-76
2023/02/02 05:33:44;;;;;;;;;;;;;;;22.45;21.85;97584.56;4998944;28;1839;-76
2023/02/02 05:36:10;;;;;;;;;;;;;;;22.86;21.13;97587.03;4974578;28;1512;-75
2023/02/02 05:38:35;;;;;;;;;;;;;;;22.52;21.64;97589.94;4975044;28;1114;-75
2023/02/02 05:41:01;;;;;;;;;;;;;;;22.66;21.34;97603.59;4958864;28;1985;-75
2023/02/02 05:43:27;;;;;;;;;;;;;;;23.10;20.78;97600.75;4975012;28;1068;-76
2023/02/02 05:45:52;;;;;;;;;;;;;;;22.30;21.85;97612.63;4974480;28;1069;-76
2023/02/02 05:48:17;;;;;;;;;;;;;;;22.77;21.24;97612.50;4973570;28;1531;-76
2023/02/02 05:50:43;;;;;;;;;;;;;;;22.34;21.81;97605.56;4958985;28;1702;-76
2023/02/02 05:53:09;;;;;;;;;;;;;;;22.41;22.09;97615.06;4936173;29;1608;-76
2023/02/02 05:55:34;;;;;;;;;;;;;;;22.39;21.90;97620.41;4921003;29;1045;-76
2023/02/02 05:58:00;;;;;;;;;;;;;;;22.57;21.64;97614.88;4936871;29;1143;-75
2023/02/02 06:00:25;;;;;;;;;;;;;;;22.86;21.15;97626.75;4936593;29;1910;-75
2023/02/02 06:02:50;;;;;;;;;;;;;;;22.91;21.17;97621.78;4936442;29;952;-75
2023/02/02 06:05:16;;;;;;;;;;;;;;;22.73;21.30;97617.50;4936750;29;1621;-76
2023/02/02 06:07:41;;;;;;;;;;;;;;;22.80;21.23;97630.66;4964018;28;1015;-75
2023/02/02 06:10:07;;;;;;;;;;;;;;;22.75;21.35;97620.69;4975033;28;1072;-76
2023/02/02 06:12:32;;;;;;;;;;;;;;;22.70;21.51;97634.69;4975178;28;1027;-76
2023/02/02 06:14:58;;;;;;;;;;;;;;;22.53;21.64;97629.19;4974852;28;961;-75
2023/02/02 06:17:23;;;;;;;;;;;;;;;21.91;22.39;97625.25;4969635;28;1117;-75
2023/02/02 06:19:48;;;;;;;;;;;;;;;22.73;21.22;97626.03;4955508;29;874;-76
2023/02/02 06:22:14;;;;;;;;;;;;;;;22.79;21.46;97627.00;4955626;29;1919;-75
2023/02/02 06:24:39;;;;;;;;;;;;;;;22.23;22.11;97624.22;4983593;28;971;-76
2023/02/02 06:27:05;;;;;;;;;;;;;;;22.44;21.68;97625.50;4994370;28;962;-75
2023/02/02 06:29:30;;;;;;;;;;;;;;;21.99;22.37;97620.97;5012014;28;1426;-75
2023/02/02 06:31:56;;;;;;;;;;;;;;;21.94;22.31;97618.69;5013794;28;997;-76
2023/02/02 06:34:21;;;;;;;;;;;;;;;21.83;22.33;97622.69;4977173;28;1398;-76
2023/02/02 06:36:47;;;;;;;;;;;;;;;22.05;22.14;97627.63;4994039;28;992;-76
2023/02/02 06:39:13;;;;;;;;;;;;;;;22.29;21.94;97623.16;5011414;28;1507;-75
2023/02/02 06:41:39;;;;;;;;;;;;;;;22.12;21.96;97629.44;5016300;28;1906;-76
2023/02/02 06:44:04;;;;;;;;;;;;;;;22.55;21.36;97623.06;5015035;28;898;-76
2023/02/02 06:46:30;;;;;;;;;;;;;;;22.22;21.82;97623.41;5014987;28;1440;-76
2023/02/02 06:48:55;;;;;;;;;;;;;;;22.49;21.29;97627.75;5015955;28;1584;-76
2023/02/02 06:51:21;;;;;;;;;;;;;;;22.09;22.11;97631.91;5016058;28;1617;-75
2023/02/02 06:53:47;;;;;;;;;;;;;;;22.59;21.28;97635.88;5016047;28;934;-76
2023/02/02 06:56:12;;;;;;;;;;;;;;;22.43;21.59;97638.84;5015942;28;934;-75
2023/02/02 06:58:38;;;;;;;;;;;;;;;22.08;21.88;97635.22;5001164;28;999;-75
2023/02/02 07:01:03;;;;;;;;;;;;;;;22.67;21.20;97641.25;5019456;28;1910;-75
2023/02/02 07:03:29;;;;;;;;;;;;;;;22.77;21.13;97640.06;5019080;28;1595;-76
2023/02/02 07:05:54;;;;;;;;;;;;;;;22.43;21.44;97649.41;4997786;28;1547;-75
2023/02/02 07:08:20;;;;;;;;;;;;;;;22.56;21.38;97659.47;4999783;28;931;-75
2023/02/02 07:10:45;;;;;;;;;;;;;;;22.55;21.45;97657.09;5018455;28;1586;-75
2023/02/02 07:13:11;;;;;;;;;;;;;;;22.65;21.12;97674.97;5019550;28;893;-75
2023/02/02 07:15:39;;;;;;;;;;;;;;;22.60;21.24;97668.63;5019621;28;914;-75
2023/02/02 07:18:05;;;;;;;;;;;;;;;22.44;21.36;97668.03;5018370;28;884;-75
2023/02/02 07:20:30;;;;;;;;;;;;;;;21.95;21.92;97665.59;5019515;28;1906;-76
2023/02/02 07:22:56;;;;;;;;;;;;;;;22.88;21.11;97669.66;5018856;28;1551;-76
2023/02/02 07:25:21;;;;;;;;;;;;;;;22.92;20.97;97663.06;5019184;28;1130;-76
2023/02/02 07:27:50;;;;;;;;;;;;;;;22.43;21.37;97666.41;5019423;28;877;-77
2023/02/02 07:30:16;;;;;;;;;;;;;;;21.95;21.93;97665.59;5019205;28;945;-75
2023/02/02 07:32:45;;;;;;;;;;;;;;;22.51;21.14;97668.56;4984610;28;1095;-76
2023/02/02 07:35:10;;;;;;;;;;;;;;;22.35;21.25;97663.84;5001056;28;978;-76
2023/02/02 07:37:36;;;;;;;;;;;;;;;22.27;21.36;97665.31;4999264;28;932;-75
2023/02/02 07:40:01;;;;;;;;;;;;;;;21.90;21.88;97680.34;4997925;28;1206;-76
2023/02/02 07:42:27;;;;;;;;;;;;;;;22.26;21.77;97666.59;4999155;28;1910;-75
2023/02/02 07:44:52;;;;;;;;;;;;;;;21.84;21.86;97672.41;4999330;28;1003;-75
2023/02/02 07:47:18;;;;;;;;;;;;;;;21.88;22.19;97671.53;5009879;28;959;-76
2023/02/02 07:49:44;;;;;;;;;;;;;;;22.35;21.45;97672.34;5018486;28;969;-75
2023/02/02 07:52:10;;;;;;;;;;;;;;;22.48;21.47;97669.47;5018586;28;1152;-75
2023/02/02 07:54:35;;;;;;;;;;;;;;;21.88;21.98;97671.53;5018479;28;883;-75
2023/02/02 07:57:01;;;;;;;;;;;;;;;22.01;21.95;97680.78;4983762;28;1001;-75
2023/02/02 07:59:26;;;;;;;;;;;;;;;22.74;20.91;97681.50;5018082;28;1740;-76
2023/02/02 08:01:52;;;;;;;;;;;;;;;22.07;21.94;97678.94;4984003;28;1981;-75
2023/02/02 08:04:17;;;;;;;;;;;;;;;22.27;21.73;97682.34;5017915;28;1346;-76
2023/02/02 08:06:43;;;;;;;;;;;;;;;22.54;21.21;97683.88;5018033;28;1432;-76
2023/02/02 08:09:08;;;;;;;;;;;;;;;22.51;21.40;97690.44;5017360;28;974;-75
2023/02/02 08:11:34;;;;;;;;;;;;;;;22.39;21.25;97700.56;5018229;28;1194;-76
2023/02/02 08:14:00;;;;;;;;;;;;;;;22.16;21.66;97701.75;5000837;28;976;-75
2023/02/02 08:16:26;;;;;;;;;;;;;;;22.65;20.88;97704.13;5000530;28;1001;-76
2023/02/02 08:18:51;;;;;;;;;;;;;;;22.82;20.73;97704.72;5000940;28;1377;-75
2023/02/02 08:21:17;;;;;;;;;;;;;;;22.40;21.34;97710.66;5018043;28;1971;-76
2023/02/02 08:23:42;;;;;;;;;;;;;;;22.78;20.94;97704.84;5017676;28;964;-75
2023/02/02 08:26:10;;;;;;;;;;;;;;;22.25;21.67;97704.69;5018299;28;912;-76
2023/02/02 08:28:36;;;;;;;;;;;;;;;22.81;21.06;97706.78;5008474;28;1400;-76
2023/02/02 08:31:09;;;;;;;;;;;;;;;22.24;21.41;97708.78;4998703;28;983;-75
2023/02/02 08:33:34;;;;;;;;;;;;;;;22.40;21.27;97712.72;4997251;28;915;-76
2023/02/02 08:36:00;;;;;;;;;;;;;;;22.51;21.35;97713.13;4998226;28;899;-75
2023/02/02 08:38:25;;;;;;;;;;;;;;;22.57;21.09;97711.28;4997762;28;981;-75
2023/02/02 08:40:51;;;;;;;;;;;;;;;21.63;22.20;97718.41;4997886;28;1910;-76
2023/02/02 08:43:17;;;;;;;;;;;;;;;22.60;21.18;97716.06;5010070;28;1354;-76
2023/02/02 08:45:42;;;;;;;;;;;;;;;22.64;21.36;97713.88;5018003;28;1083;-76
2023/02/02 08:48:08;;;;;;;;;;;;;;;22.33;21.98;97714.53;5017383;28;934;-76
2023/02/02 08:50:33;;;;;;;;;;;;;;;22.44;21.48;97721.88;5017599;28;915;-76
2023/02/02 08:52:59;;;;;;;;;;;;;;;22.46;21.24;97716.53;5017296;28;900;-75
2023/02/02 08:55:24;;;;;;;;;;;;;;;22.34;21.60;97721.78;5017221;28;937;-76
2023/02/02 08:57:49;;;;;;;;;;;;;;;22.55;21.39;97714.59;5016403;28;1406;-76
2023/02/02 09:00:15;;;;;;;;;;;;;;;22.22;21.68;97719.75;5017210;28;910;-76
2023/02/02 09:02:41;;;;;;;;;;;;;;;22.50;21.54;97717.22;5017646;28;1963;-75
2023/02/02 09:05:06;;;;;;;;;;;;;;;22.50;21.42;97722.88;5017063;28;984;-75
2023/02/02 09:07:32;;;;;;;;;;;;;;;22.50;21.80;97717.22;5017071;28;941;-76
2023/02/02 09:09:57;;;;;;;;;;;;;;;22.15;21.90;97720.00;5016905;28;927;-76
2023/02/02 09:12:23;;;;;;;;;;;;;;;22.33;21.80;97714.53;5016286;28;1393;-76
2023/02/02 09:14:49;;;;;;;;;;;;;;;22.19;21.91;97715.00;5017088;28;1402;-75
2023/02/02 09:17:14;;;;;;;;;;;;;;;22.21;21.90;97718.19;5017065;28;872;-76
2023/02/02 09:19:40;;;;;;;;;;;;;;;22.45;21.68;97717.78;5017203;28;899;-75
2023/02/02 09:22:05;;;;;;;;;;;;;;;22.21;21.87;97712.50;5017035;28;1981;-76
2023/02/02 09:24:30;;;;;;;;;;;;;;;22.38;21.79;97715.97;4975156;28;1342;-76
2023/02/02 09:26:56;;;;;;;;;;;;;;;22.21;22.05;97721.00;4975705;28;912;-76
2023/02/02 09:29:21;;;;;;;;;;;;;;;22.18;21.89;97713.44;4974988;28;1441;-76
2023/02/02 09:31:47;;;;;;;;;;;;;;;22.45;21.55;97709.28;4975757;28;950;-75
2023/02/02 09:34:13;;;;;;;;;;;;;;;22.06;22.23;97702.88;4975596;28;970;-76
2023/02/02 09:36:38;;;;;;;;;;;;;;;22.25;21.89;97710.34;4959229;28;897;-76
2023/02/02 09:39:04;;;;;;;;;;;;;;;22.58;21.39;97690.97;4974745;28;1441;-76
2023/02/02 09:41:35;;;;;;;;;;;;;;;22.53;21.48;97693.59;4975385;28;1917;-75
2023/02/02 09:44:01;;;;;;;;;;;;;;;22.54;21.70;97695.22;4974958;28;960;-76
2023/02/02 09:46:32;;;;;;;;;;;;;;;22.23;21.85;97687.34;4975579;28;996;-76
2023/02/02 09:48:59;;;;;;;;;;;;;;;22.79;21.28;97672.38;4975213;28;951;-75
2023/02/02 09:51:25;;;;;;;;;;;;;;;22.92;21.10;97663.06;4959208;28;1066;-76
2023/02/02 09:53:55;;;;;;;;;;;;;;;22.15;22.20;97663.34;4974360;28;1326;-75
2023/02/02 09:56:23;;;;;;;;;;;;;;;21.98;22.27;97653.38;5010215;28;954;-75
2023/02/02 09:58:50;;;;;;;;;;;;;;;22.67;21.36;97663.94;4998763;28;957;-75
2023/02/02 10:01:21;;;;;;;;;;;;;;;22.53;21.83;97645.41;4974713;28;1974;-75
2023/02/02 10:03:49;;;;;;;;;;;;;;;22.34;21.72;97636.75;4958439;28;1438;-76
2023/02/02 10:06:17;;;;;;;;;;;;;;;22.07;22.25;97634.44;4974843;28;966;-76
2023/02/02 10:08:47;;;;;;;;;;;;;;;21.70;22.41;97641.72;4975440;28;966;-76
2023/02/02 10:11:21;;;;;;;;;;;;;;;21.72;22.46;97629.97;4959082;28;940;-76
2023/02/02 10:13:47;;;;;;;;;;;;;;;22.52;21.92;97626.81;4975068;28;962;-76
2023/02/02 10:16:18;;;;;;;;;;;;;;;22.44;21.77;97634.00;4973753;28;1883;-76
2023/02/02 10:18:46;;;;;;;;;;;;;;;22.22;22.30;97634.72;4959241;28;959;-75
2023/02/02 10:21:17;;;;;;;;;;;;;;;23.03;21.20;97623.72;4974267;28;1910;-75
2023/02/02 10:23:43;;;;;;;;;;;;;;;22.26;22.07;97626.91;4955482;29;1024;-75
2023/02/02 10:26:21;;;;;;;;;;;;;;;22.60;21.55;97628.16;4955295;28;995;-76
2023/02/02 10:29:05;;;;;;;;;;;;;;;22.33;21.75;97631.56;4955462;29;938;-75
2023/02/02 10:32:00;;;;;;;;;;;;;;;22.74;21.64;97630.47;4963942;28;958;-75
2023/02/02 10:34:37;;;;;;;;;;;;;;;22.55;21.88;97628.72;4997919;28;1533;-76
2023/02/02 10:37:22;;;;;;;;;;;;;;;22.02;22.35;97620.03;5001424;28;972;-76
2023/02/02 10:39:59;;;;;;;;;;;;;;;22.98;21.34;97621.50;5005509;28;1508;-76
2023/02/02 10:42:24;;;;;;;;;;;;;;;22.48;22.07;97623.31;4985187;28;1918;-76
2023/02/02 10:44:57;;;;;;;;;;;;;;;21.97;22.23;97623.47;5017311;28;1706;-76
2023/02/02 10:47:24;;;;;;;;;;;;;;;22.39;21.84;97626.88;5017562;28;962;-75
2023/02/02 10:49:53;;;;;;;;;;;;;;;22.32;21.89;97621.44;4999334;28;1767;-76
2023/02/02 10:52:25;;;;;;;;;;;;;;;22.29;22.14;97620.34;4981786;28;1034;-75
2023/02/02 10:55:14;;;;;;;;;;;;;;;22.08;22.15;97618.22;4981904;28;920;-76
2023/02/02 10:57:58;;;;;;;;;;;;;;;22.06;22.58;97609.38;4987650;28;1056;-75
2023/02/02 11:00:23;;;;;;;;;;;;;;;22.36;22.04;97605.91;5011759;28;1973;-76
2023/02/02 11:02:49;;;;;;;;;;;;;;;22.66;21.57;97606.44;4997664;28;1072;-77
2023/02/02 11:08:31;;;;;;;;;;;;;;;22.22;22.41;97614.91;4997729;28;1032;-76
2023/02/02 11:10:57;;;;;;;;;;;;;;;22.41;22.02;97610.19;4947977;28;1018;-76
2023/02/02 11:13:22;;;;;;;;;;;;;;;22.53;22.16;97614.22;4943442;29;1348;-76
2023/02/02 11:15:48;;;;;;;;;;;;;;;22.40;22.10;97607.81;4957613;28;1384;-76
2023/02/02 11:18:34;;;;;;;;;;;;;;;22.49;22.11;97619.25;4958467;29;1016;-76
2023/02/02 11:20:59;;;;;;;;;;;;;;;22.58;21.93;97610.78;4957918;29;1898;-76
2023/02/02 11:23:26;;;;;;;;;;;;;;;22.93;21.24;97616.41;4958557;29;1001;-76
2023/02/02 11:26:01;;;;;;;;;;;;;;;22.40;22.06;97605.78;4942581;29;939;-75
2023/02/02 11:28:29;;;;;;;;;;;;;;;22.42;22.11;97608.94;4958188;29;1058;-75
2023/02/02 11:30:54;;;;;;;;;;;;;;;22.41;22.11;97612.22;4942228;29;1566;-75
2023/02/02 11:33:26;;;;;;;;;;;;;;;22.49;21.93;97608.69;4942043;28;983;-76
2023/02/02 11:36:01;;;;;;;;;;;;;;;21.78;23.04;97611.16;4958197;29;1451;-76
2023/02/02 11:38:27;;;;;;;;;;;;;;;21.83;23.02;97607.75;4942255;29;990;-76
2023/02/02 11:41:02;;;;;;;;;;;;;;;22.04;22.36;97604.16;4941949;29;1978;-76
2023/02/02 11:43:28;;;;;;;;;;;;;;;21.76;23.13;97591.78;4956167;28;1468;-76
2023/02/02 11:45:56;;;;;;;;;;;;;;;21.84;23.04;97601.59;4959523;29;1142;-80
2023/02/02 11:48:23;;;;;;;;;;;;;;;22.02;22.55;97591.69;4982595;28;957;-75
2023/02/02 11:50:49;;;;;;;;;;;;;;;21.69;22.71;97521.22;5018768;28;1052;-75
2023/02/02 11:53:24;;;;;;;;;;;;;;;22.44;22.03;97582.97;5001478;28;936;-76
2023/02/02 11:55:49;;;;;;;;;;;;;;;22.40;22.11;97593.66;5017617;28;1358;-77
2023/02/02 11:58:18;;;;;;;;;;;;;;;22.56;21.72;97579.28;5018804;28;977;-76
2023/02/02 12:00:51;;;;;;;;;;;;;;;22.54;21.78;97574.06;5018435;28;1981;-75
2023/02/02 12:03:22;;;;;;;;;;;;;;;22.57;21.65;97563.84;5018539;28;911;-76
2023/02/02 12:05:49;;;;;;;;;;;;;;;22.79;21.50;97570.28;5018208;28;999;-76
2023/02/02 12:08:14;;;;;;;;;;;;;;;22.81;21.40;97567.78;5000913;28;942;-76
2023/02/02 12:10:43;;;;;;;;;;;;;;;22.34;22.04;97571.56;5017130;28;1471;-76
2023/02/02 12:13:08;;;;;;;;;;;;;;;22.68;21.56;97572.72;5018205;28;933;-76
2023/02/02 12:15:37;;;;;;;;;;;;;;;22.47;22.01;97559.34;5017424;28;1403;-76
2023/02/02 12:18:22;;;;;;;;;;;;;;;22.42;21.76;97551.44;5018193;28;902;-76
2023/02/02 12:20:54;;;;;;;;;;;;;;;22.59;21.50;97555.69;5017529;28;1973;-76
2023/02/02 12:23:55;;;;;;;;;;;;;;;22.57;21.47;97558.16;5017914;28;899;-76
2023/02/02 12:26:22;;;;;;;;;;;;;;;22.51;21.79;97560.81;4976617;28;1025;-76
2023/02/02 12:28:48;;;;;;;;;;;;;;;22.16;21.99;97560.06;4960414;28;1032;-76
2023/02/02 12:31:26;;;;;;;;;;;;;;;21.69;22.80;97566.53;4975538;28;1405;-77
2023/02/02 12:33:53;;;;;;;;;;;;;;;22.36;21.86;97571.88;4960139;28;1171;-75
2023/02/02 12:36:24;;;;;;;;;;;;;;;22.30;22.00;97562.38;4944416;28;1076;-76
2023/02/02 12:39:07;;;;;;;;;;;;;;;22.06;22.35;97558.38;4976322;28;1189;-76
2023/02/02 12:41:35;;;;;;;;;;;;;;;22.11;22.11;97577.66;4959975;28;1898;-76
2023/02/02 12:44:19;;;;;;;;;;;;;;;21.96;22.78;97573.69;4973389;28;1362;-75
2023/02/02 12:46:54;;;;;;;;;;;;;;;22.26;22.12;97558.88;4956874;29;955;-76
2023/02/02 12:49:26;;;;;;;;;;;;;;;22.41;22.13;97561.22;4957220;29;985;-76
2023/02/02 12:51:51;;;;;;;;;;;;;;;22.19;22.41;97562.00;4970457;28;1296;-76
2023/02/02 12:54:20;;;;;;;;;;;;;;;22.50;22.03;97556.41;4975683;28;996;-75
2023/02/02 12:56:49;;;;;;;;;;;;;;;22.39;21.97;97558.06;4959911;28;967;-76
2023/02/02 12:59:15;;;;;;;;;;;;;;;22.39;21.93;97552.38;4978273;28;990;-75
2023/02/02 13:01:46;;;;;;;;;;;;;;;22.51;21.58;97538.13;5017434;28;1901;-75
2023/02/02 13:04:12;;;;;;;;;;;;;;;22.62;21.86;97546.22;5016966;28;1398;-76
2023/02/02 13:06:37;;;;;;;;;;;;;;;22.60;21.59;97534.56;5016076;28;1443;-76
2023/02/02 13:09:16;;;;;;;;;;;;;;;22.26;22.10;97527.72;5017193;28;919;-76
2023/02/02 13:11:44;;;;;;;;;;;;;;;22.46;21.77;97523.75;4999973;28;928;-76
2023/02/02 13:14:18;;;;;;;;;;;;;;;22.62;21.64;97510.16;4999462;28;1104;-75
2023/02/02 13:16:49;;;;;;;;;;;;;;;22.75;21.35;97518.59;4999467;28;944;-76
2023/02/02 13:19:20;;;;;;;;;;;;;;;22.62;21.52;97537.72;4999434;28;1380;-76